createdAt,value
2022-12-24T00:01:36.755Z,8.27
2022-12-24T00:03:41.766Z,7.90
2022-12-24T00:05:45.093Z,7.18
2022-12-24T00:07:48.385Z,5.40
2022-12-24T00:09:51.944Z,7.28
2022-12-24T00:11:55.275Z,4.97
2022-12-24T00:13:58.701Z,9.27
2022-12-24T00:16:02.258Z,13.45
2022-12-24T00:18:05.770Z,14.73
2022-12-24T00:20:11.755Z,36.28
2022-12-24T00:22:15.166Z,16.55
2022-12-24T00:24:18.482Z,10.77
2022-12-24T00:26:21.773Z,9.70
2022-12-24T00:28:25.208Z,9.82
2022-12-24T00:30:28.558Z,7.35
2022-12-24T00:32:32.050Z,12.98
2022-12-24T00:34:35.600Z,8.20
2022-12-24T00:36:40.602Z,4.07
2022-12-24T00:38:44.579Z,3.85
2022-12-24T00:40:47.978Z,3.83
2022-12-24T00:42:51.582Z,4.65
2022-12-24T00:44:54.961Z,5.10
2022-12-24T00:46:58.254Z,4.85
2022-12-24T00:49:01.979Z,2.90
2022-12-24T00:51:05.424Z,3.20
2022-12-24T00:53:10.209Z,4.10
2022-12-24T00:55:14.190Z,5.53
2022-12-24T00:57:17.560Z,1.98
2022-12-24T00:59:20.859Z,2.30
2022-12-24T01:01:24.084Z,1.90
2022-12-24T01:03:35.713Z,1.33
2022-12-24T01:05:37.995Z,4.13
2022-12-24T01:07:44.254Z,5.22
2022-12-24T01:09:49.176Z,3.63
2022-12-24T01:11:53.729Z,2.47
2022-12-24T01:13:57.912Z,1.60
2022-12-24T01:16:01.525Z,1.58
2022-12-24T01:18:05.440Z,1.27
2022-12-24T01:20:14.619Z,4.85
2022-12-24T01:22:18.029Z,4.68
2022-12-24T01:24:21.530Z,3.63
2022-12-24T01:26:26.298Z,3.33
2022-12-24T01:28:30.080Z,3.47
2022-12-24T01:30:33.958Z,2.92
2022-12-24T01:32:37.573Z,2.42
2022-12-24T01:34:41.050Z,2.90
2022-12-24T01:36:44.544Z,3.10
2022-12-24T01:38:47.956Z,2.28
2022-12-24T01:41:08.547Z,2.80
2022-12-24T01:43:23.742Z,2.40
2022-12-24T01:45:49.416Z,2.80
2022-12-24T01:47:52.731Z,3.70
2022-12-24T01:50:00.393Z,3.03
2022-12-24T01:52:08.210Z,3.50
2022-12-24T01:54:16.001Z,3.22
2022-12-24T01:56:21.276Z,3.35
2022-12-24T01:58:27.689Z,2.67
2022-12-24T02:00:31.186Z,3.00
2022-12-24T02:02:36.097Z,3.28
2022-12-24T02:04:44.546Z,3.17
2022-12-24T02:06:47.918Z,3.08
2022-12-24T02:08:51.413Z,2.55
2022-12-24T02:10:54.868Z,2.55
2022-12-24T02:13:00.146Z,3.20
2022-12-24T02:15:05.892Z,2.75
2022-12-24T02:17:19.676Z,1.88
2022-12-24T02:20:17.002Z,2.38
2022-12-24T02:22:28.869Z,2.92
2022-12-24T02:25:01.602Z,2.95
2022-12-24T02:27:22.506Z,2.30
2022-12-24T02:29:57.377Z,1.70
2022-12-24T02:32:05.186Z,2.42
2022-12-24T02:34:16.570Z,2.83
2022-12-24T02:36:26.032Z,2.30
2022-12-24T02:38:33.668Z,2.40
2022-12-24T02:40:42.090Z,2.33
2022-12-24T02:42:49.677Z,2.47
2022-12-24T02:44:59.626Z,2.10
2022-12-24T02:47:05.894Z,2.45
2022-12-24T02:49:09.393Z,1.95
2022-12-24T02:51:12.833Z,2.88
2022-12-24T02:53:16.151Z,1.73
2022-12-24T02:55:22.858Z,2.90
2022-12-24T02:57:34.019Z,2.85
2022-12-24T02:59:53.890Z,2.45
2022-12-24T03:02:11.126Z,2.13
2022-12-24T03:04:21.564Z,2.03
2022-12-24T03:06:34.782Z,2.38
2022-12-24T03:08:45.623Z,2.60
2022-12-24T03:10:56.729Z,2.47
2022-12-24T03:13:04.187Z,2.40
2022-12-24T03:15:10.105Z,2.08
2022-12-24T03:17:15.475Z,2.78
2022-12-24T03:19:19.408Z,2.22
2022-12-24T03:21:27.177Z,2.08
2022-12-24T03:23:31.028Z,2.33
2022-12-24T03:25:35.846Z,2.78
2022-12-24T03:27:40.766Z,1.95
2022-12-24T03:29:45.088Z,2.47
2022-12-24T03:31:51.043Z,2.10
2022-12-24T03:33:56.001Z,2.47
2022-12-24T03:35:59.481Z,1.70
2022-12-24T03:38:02.843Z,2.33
2022-12-24T03:40:07.593Z,2.40
2022-12-24T03:42:14.444Z,2.67
2022-12-24T03:44:17.988Z,2.53
2022-12-24T03:46:21.340Z,2.80
2022-12-24T03:48:32.177Z,3.03
2022-12-24T03:50:37.621Z,2.58
2022-12-24T03:52:41.030Z,2.70
2022-12-24T03:54:44.528Z,2.45
2022-12-24T03:56:47.988Z,2.45
2022-12-24T03:58:51.522Z,2.25
2022-12-24T04:00:54.949Z,3.08
2022-12-24T04:02:58.333Z,2.75
2022-12-24T04:05:01.694Z,2.70
2022-12-24T04:07:06.868Z,2.05
2022-12-24T04:09:10.148Z,2.60
2022-12-24T04:11:16.857Z,2.30
2022-12-24T04:13:20.411Z,2.83
2022-12-24T04:15:23.728Z,2.53
2022-12-24T04:17:27.164Z,2.67
2022-12-24T04:19:30.721Z,2.80
2022-12-24T04:21:34.071Z,2.13
2022-12-24T04:23:40.145Z,3.13
2022-12-24T04:25:43.628Z,2.50
2022-12-24T04:27:47.099Z,2.40
2022-12-24T04:29:50.896Z,2.53
2022-12-24T04:31:54.285Z,2.83
2022-12-24T04:33:57.782Z,2.65
2022-12-24T04:36:02.459Z,2.58
2022-12-24T04:38:05.722Z,2.20
2022-12-24T04:40:11.647Z,2.15
2022-12-24T04:42:14.989Z,2.40
2022-12-24T04:44:18.237Z,2.88
2022-12-24T04:46:23.487Z,2.95
2022-12-24T04:48:26.897Z,2.15
2022-12-24T04:50:30.264Z,2.70
2022-12-24T04:52:34.633Z,3.22
2022-12-24T04:54:37.953Z,2.20
2022-12-24T04:56:42.622Z,2.78
2022-12-24T04:58:46.116Z,2.40
2022-12-24T05:00:49.492Z,2.75
2022-12-24T05:02:53.027Z,3.00
2022-12-24T05:04:56.492Z,3.22
2022-12-24T05:06:59.883Z,2.42
2022-12-24T05:09:03.441Z,2.30
2022-12-24T05:11:08.070Z,2.55
2022-12-24T05:13:12.714Z,2.05
2022-12-24T05:15:16.390Z,2.20
2022-12-24T05:17:20.014Z,2.30
2022-12-24T05:19:24.200Z,2.35
2022-12-24T05:21:27.515Z,2.20
2022-12-24T05:23:48.524Z,2.25
2022-12-24T05:26:09.293Z,2.20
2022-12-24T05:28:14.048Z,2.25
2022-12-24T05:30:17.713Z,2.22
2022-12-24T05:32:21.249Z,2.30
2022-12-24T05:34:24.630Z,2.20
2022-12-24T05:36:28.803Z,2.38
2022-12-24T05:38:32.103Z,2.47
2022-12-24T05:40:35.461Z,3.60
2022-12-24T05:42:39.088Z,4.47
2022-12-24T05:44:43.962Z,5.65
2022-12-24T05:46:47.553Z,5.80
2022-12-24T05:48:51.410Z,4.40
2022-12-24T05:50:55.375Z,5.90
2022-12-24T05:52:58.761Z,6.13
2022-12-24T05:55:02.116Z,6.07
2022-12-24T05:57:05.702Z,4.97
2022-12-24T05:59:09.014Z,5.05
2022-12-24T06:01:14.656Z,4.65
2022-12-24T06:03:18.662Z,5.20
2022-12-24T06:05:22.134Z,5.80
2022-12-24T06:07:25.736Z,7.68
2022-12-24T06:09:32.711Z,8.50
2022-12-24T06:11:36.644Z,12.63
2022-12-24T06:13:41.053Z,12.77
2022-12-24T06:15:44.558Z,11.20
2022-12-24T06:17:49.720Z,11.25
2022-12-24T06:19:53.262Z,10.25
2022-12-24T06:21:56.652Z,8.63
2022-12-24T06:24:00.195Z,7.47
2022-12-24T06:26:08.159Z,8.55
2022-12-24T06:28:11.568Z,8.25
2022-12-24T06:30:17.694Z,7.28
2022-12-24T06:32:22.132Z,7.45
2022-12-24T06:34:30.338Z,7.55
2022-12-24T06:36:33.627Z,8.32
2022-12-24T06:38:38.042Z,9.48
2022-12-24T06:40:46.166Z,8.10
2022-12-24T06:42:49.546Z,8.32
2022-12-24T06:44:52.856Z,8.30
2022-12-24T06:46:57.393Z,8.00
2022-12-24T06:49:01.151Z,6.50
2022-12-24T06:51:06.785Z,6.85
2022-12-24T06:53:11.242Z,7.38
2022-12-24T06:55:15.013Z,7.47
2022-12-24T06:57:18.419Z,6.97
2022-12-24T06:59:22.024Z,6.07
2022-12-24T07:01:25.892Z,4.97
2022-12-24T07:03:29.692Z,4.30
2022-12-24T07:05:35.877Z,5.78
2022-12-24T07:07:42.017Z,4.63
2022-12-24T07:09:45.417Z,4.68
2022-12-24T07:11:48.945Z,5.45
2022-12-24T07:13:52.418Z,4.55
2022-12-24T07:15:59.587Z,6.13
2022-12-24T07:18:02.968Z,5.45
2022-12-24T07:20:08.429Z,5.28
2022-12-24T07:22:15.422Z,6.90
2022-12-24T07:24:21.766Z,7.10
2022-12-24T07:26:26.592Z,7.20
2022-12-24T07:28:30.275Z,7.88
2022-12-24T07:30:33.777Z,7.60
2022-12-24T07:32:37.673Z,6.63
2022-12-24T07:34:41.099Z,7.85
2022-12-24T07:36:44.557Z,5.72
2022-12-24T07:38:48.255Z,6.82
2022-12-24T07:40:53.081Z,5.80
2022-12-24T07:42:56.498Z,6.55
2022-12-24T07:44:59.961Z,6.90
2022-12-24T07:47:03.593Z,6.43
2022-12-24T07:49:06.955Z,7.65
2022-12-24T07:51:10.781Z,7.43
2022-12-24T07:53:14.049Z,6.80
2022-12-24T07:55:17.538Z,6.85
2022-12-24T07:57:25.776Z,6.78
2022-12-24T07:59:29.063Z,7.32
2022-12-24T08:01:32.959Z,7.05
2022-12-24T08:03:36.520Z,7.25
2022-12-24T08:05:40.141Z,6.78
2022-12-24T08:07:43.488Z,6.65
2022-12-24T08:09:46.823Z,5.68
2022-12-24T08:11:52.563Z,5.85
2022-12-24T08:13:57.444Z,8.73
2022-12-24T08:16:00.975Z,6.43
2022-12-24T08:18:04.494Z,7.25
2022-12-24T08:20:09.419Z,7.60
2022-12-24T08:22:12.797Z,7.40
2022-12-24T08:24:16.836Z,11.02
2022-12-24T08:26:20.198Z,8.77
2022-12-24T08:28:23.713Z,8.43
2022-12-24T08:30:28.629Z,8.35
2022-12-24T08:32:32.018Z,8.23
2022-12-24T08:34:35.358Z,7.50
2022-12-24T08:36:38.709Z,7.75
2022-12-24T08:38:42.020Z,5.65
2022-12-24T08:40:47.330Z,10.60
2022-12-24T08:42:51.010Z,9.10
2022-12-24T14:19:37.768Z,3.60
2022-12-24T14:21:50.222Z,2.33
2022-12-24T14:23:57.096Z,3.20
2022-12-24T14:26:03.574Z,3.20
2022-12-24T14:28:19.240Z,3.70
2022-12-24T14:30:25.191Z,3.30
2022-12-24T14:32:36.174Z,2.20
2022-12-24T14:34:39.457Z,3.07
2022-12-24T14:36:47.770Z,2.47
2022-12-24T14:38:51.622Z,2.90
2022-12-24T14:41:03.867Z,3.50
2022-12-24T14:43:15.349Z,2.67
2022-12-24T14:45:29.952Z,3.27
2022-12-24T14:47:41.590Z,2.30
2022-12-24T14:50:01.452Z,2.40
2022-12-24T14:52:37.593Z,3.30
2022-12-24T14:54:40.490Z,2.00
2022-12-24T14:56:43.817Z,3.20
2022-12-24T14:58:48.576Z,2.93
2022-12-24T15:00:53.175Z,2.77
2022-12-24T15:02:56.633Z,3.07
2022-12-24T15:05:15.714Z,2.77
2022-12-24T15:07:23.625Z,4.70
2022-12-24T15:09:29.655Z,7.90
2022-12-24T15:11:33.554Z,5.00
2022-12-24T15:13:40.153Z,4.07
2022-12-24T15:15:51.800Z,5.60
2022-12-24T15:17:59.808Z,7.17
2022-12-24T15:20:05.128Z,5.03
2022-12-24T15:22:11.420Z,6.10
2022-12-24T15:24:26.991Z,4.50
2022-12-24T15:26:31.847Z,6.13
2022-12-24T15:28:38.077Z,6.43
2022-12-24T15:30:45.373Z,5.63
2022-12-24T15:32:49.293Z,6.40
2022-12-24T15:34:54.303Z,6.75
2022-12-24T15:37:05.290Z,8.43
2022-12-24T15:39:16.069Z,18.35
2022-12-24T15:41:22.656Z,18.60
2022-12-24T15:43:27.194Z,17.40
2022-12-24T15:45:31.736Z,23.67
2022-12-24T15:47:38.246Z,20.05
2022-12-24T15:49:42.448Z,9.85
2022-12-24T15:51:46.065Z,7.82
2022-12-24T15:53:49.788Z,9.38
2022-12-24T15:56:04.169Z,17.35
2022-12-24T15:58:17.990Z,18.20
2022-12-24T16:00:23.667Z,20.25
2022-12-24T16:02:35.237Z,19.25
2022-12-24T16:04:38.951Z,21.90
2022-12-24T16:06:55.584Z,18.65
2022-12-24T16:08:59.256Z,21.20
2022-12-24T16:11:13.878Z,21.08
2022-12-24T16:13:20.698Z,22.30
2022-12-24T16:15:24.537Z,19.42
2022-12-24T16:17:29.777Z,16.75
2022-12-24T16:19:39.724Z,21.40
2022-12-24T16:21:44.447Z,15.90
2022-12-24T16:23:48.953Z,14.68
2022-12-24T16:25:53.521Z,15.65
2022-12-24T16:28:00.331Z,18.80
2022-12-24T16:30:06.325Z,16.50
2022-12-24T16:32:23.480Z,14.10
2022-12-24T16:34:29.437Z,12.88
2022-12-24T16:36:33.436Z,17.05
2022-12-24T16:38:57.780Z,15.10
2022-12-24T16:41:01.498Z,15.27
2022-12-24T16:43:22.461Z,17.77
2022-12-24T16:45:27.419Z,20.83
2022-12-24T16:47:35.849Z,20.58
2022-12-24T16:49:42.421Z,16.92
2022-12-24T16:51:46.136Z,16.13
2022-12-24T16:53:52.882Z,16.35
2022-12-24T16:55:56.419Z,19.38
2022-12-24T16:58:03.044Z,14.10
2022-12-24T17:00:09.217Z,11.05
2022-12-24T17:02:15.769Z,8.93
2022-12-24T17:04:20.531Z,7.88
2022-12-24T17:06:24.195Z,8.93
2022-12-24T17:08:27.892Z,9.23
2022-12-24T17:10:31.588Z,7.90
2022-12-24T17:12:38.774Z,11.90
2022-12-24T17:14:43.077Z,12.68
2022-12-24T17:16:46.782Z,10.38
2022-12-24T17:18:59.219Z,7.55
2022-12-24T17:21:03.801Z,8.90
2022-12-24T17:23:07.502Z,13.88
2022-12-24T17:25:12.764Z,11.68
2022-12-24T17:27:17.720Z,11.05
2022-12-24T17:29:21.569Z,10.85
2022-12-24T17:31:25.627Z,10.43
2022-12-24T17:33:29.380Z,11.57
2022-12-24T17:35:34.511Z,11.90
2022-12-24T17:37:38.144Z,10.50
2022-12-24T17:39:41.712Z,9.77
2022-12-24T17:41:46.129Z,10.32
2022-12-24T17:43:50.224Z,11.57
2022-12-24T17:45:53.927Z,13.57
2022-12-24T17:47:57.540Z,19.13
2022-12-24T17:50:01.125Z,18.10
2022-12-24T17:52:06.264Z,12.50
2022-12-24T17:54:10.299Z,10.68
2022-12-24T17:56:15.456Z,9.40
2022-12-24T17:58:18.997Z,14.05
2022-12-24T18:00:25.672Z,10.80
2022-12-24T18:02:31.791Z,11.85
2022-12-24T18:04:35.443Z,9.85
2022-12-24T18:06:47.230Z,10.77
2022-12-24T18:08:53.979Z,8.63
2022-12-24T18:10:57.698Z,15.20
2022-12-24T18:13:01.205Z,16.83
2022-12-24T18:15:05.665Z,13.48
2022-12-24T18:17:09.387Z,9.95
2022-12-24T18:19:13.555Z,7.82
2022-12-24T18:21:17.401Z,12.90
2022-12-24T18:23:24.699Z,10.32
2022-12-24T18:25:29.852Z,9.05
2022-12-24T18:27:33.389Z,9.77
2022-12-24T18:29:41.529Z,8.40
2022-12-24T18:31:45.717Z,10.00
2022-12-24T18:33:50.772Z,9.23
2022-12-24T18:35:54.489Z,9.40
2022-12-24T18:37:57.952Z,11.20
2022-12-24T18:40:02.327Z,10.48
2022-12-24T18:42:07.397Z,10.40
2022-12-24T18:44:11.404Z,11.70
2022-12-24T18:46:16.000Z,11.63
2022-12-24T18:48:19.723Z,11.43
2022-12-24T18:50:23.429Z,11.25
2022-12-24T18:52:32.249Z,11.68
2022-12-24T18:54:35.944Z,12.75
2022-12-24T18:56:39.548Z,16.25
2022-12-24T18:58:45.010Z,34.60
2022-12-24T19:00:49.183Z,45.13
2022-12-24T19:02:53.004Z,52.05
2022-12-24T19:04:56.794Z,55.95
2022-12-24T19:07:01.256Z,51.10
2022-12-24T19:09:05.556Z,55.70
2022-12-24T19:11:09.340Z,55.53
2022-12-24T19:13:13.018Z,52.00
2022-12-24T19:15:18.020Z,47.70
2022-12-24T19:17:21.659Z,36.35
2022-12-24T19:19:25.358Z,36.40
2022-12-24T19:21:29.060Z,25.25
2022-12-24T19:23:32.757Z,24.95
2022-12-24T19:25:36.877Z,16.13
2022-12-24T19:27:40.396Z,27.50
2022-12-24T19:29:43.978Z,19.30
2022-12-24T19:31:49.112Z,20.38
2022-12-24T19:33:53.553Z,21.17
2022-12-24T19:35:57.226Z,22.95
2022-12-24T19:38:01.139Z,23.05
2022-12-24T19:40:04.811Z,19.42
2022-12-24T19:42:08.410Z,21.25
2022-12-24T19:44:12.413Z,21.77
2022-12-24T19:46:17.566Z,20.42
2022-12-24T19:48:22.621Z,15.18
2022-12-24T19:50:30.064Z,15.57
2022-12-24T19:52:37.641Z,6.03
2022-12-24T19:54:42.708Z,5.85
2022-12-24T19:56:46.232Z,7.65
2022-12-24T19:58:50.093Z,9.45
2022-12-24T20:00:53.858Z,11.88
2022-12-24T20:02:57.622Z,10.35
2022-12-24T20:05:03.839Z,11.55
2022-12-24T20:07:07.423Z,16.63
2022-12-24T20:09:11.148Z,29.00
2022-12-24T20:11:16.622Z,30.67
2022-12-24T20:13:20.837Z,18.92
2022-12-24T20:15:25.079Z,14.38
2022-12-24T20:17:28.688Z,10.80
2022-12-24T20:19:32.278Z,9.60
2022-12-24T20:21:38.049Z,11.85
2022-12-24T20:23:42.264Z,12.40
2022-12-24T20:25:45.973Z,14.13
2022-12-24T20:27:50.107Z,10.95
2022-12-24T20:29:57.277Z,10.80
2022-12-24T20:32:00.973Z,14.20
2022-12-24T20:34:05.319Z,10.20
2022-12-24T20:36:09.088Z,7.88
2022-12-24T20:38:14.511Z,8.88
2022-12-24T20:40:18.191Z,8.43
2022-12-24T20:42:22.057Z,8.48
2022-12-24T20:44:25.686Z,8.93
2022-12-24T20:46:31.222Z,11.10
2022-12-24T20:48:35.125Z,12.77
2022-12-24T20:50:42.613Z,11.43
2022-12-24T20:52:46.214Z,14.00
2022-12-24T20:54:51.526Z,13.38
2022-12-24T20:56:57.872Z,10.95
2022-12-24T20:59:06.640Z,15.43
2022-12-24T21:01:11.254Z,17.65
2022-12-24T21:03:18.885Z,26.42
2022-12-24T21:05:22.661Z,34.55
2022-12-24T21:07:26.343Z,32.22
2022-12-24T21:09:29.942Z,30.70
2022-12-24T21:11:52.829Z,24.30
2022-12-24T21:13:56.485Z,32.60
2022-12-24T21:16:00.285Z,29.40
2022-12-24T21:18:10.180Z,28.23
2022-12-24T21:20:14.585Z,20.75
2022-12-24T21:22:18.293Z,20.52
2022-12-24T21:24:22.042Z,20.25
2022-12-24T21:26:25.641Z,19.52
2022-12-24T21:28:34.870Z,14.35
2022-12-24T21:30:38.560Z,14.80
2022-12-24T21:32:42.275Z,12.90
2022-12-24T21:34:46.446Z,8.90
2022-12-24T21:36:50.175Z,7.15
2022-12-24T21:38:55.062Z,7.47
2022-12-24T21:41:02.236Z,7.40
2022-12-24T21:43:07.577Z,7.75
2022-12-24T21:45:13.806Z,15.23
2022-12-24T21:47:20.739Z,12.60
2022-12-24T21:49:41.973Z,12.85
2022-12-24T21:51:49.125Z,12.40
2022-12-24T21:54:10.312Z,9.65
2022-12-24T21:56:14.254Z,8.82
2022-12-24T21:58:17.269Z,6.75
2022-12-24T22:00:23.295Z,7.47
2022-12-24T22:02:28.680Z,6.63
2022-12-24T22:04:33.328Z,6.30
2022-12-24T22:06:54.926Z,5.90
2022-12-24T22:09:16.746Z,5.07
2022-12-24T22:11:54.236Z,5.40
2022-12-24T22:13:58.600Z,4.63
2022-12-24T22:16:03.490Z,5.55
2022-12-24T22:18:10.309Z,6.22
2022-12-24T22:20:14.067Z,5.38
2022-12-24T22:22:17.764Z,5.47
2022-12-24T22:24:21.459Z,4.53
2022-12-24T22:26:25.175Z,5.03
2022-12-24T22:28:30.284Z,5.45
2022-12-24T22:30:33.939Z,5.85
2022-12-24T22:32:39.167Z,4.85
2022-12-24T22:34:42.684Z,5.68
2022-12-24T22:36:46.264Z,6.07
2022-12-24T22:38:49.819Z,6.00
2022-12-24T22:40:57.132Z,4.60
2022-12-24T22:43:00.728Z,5.22
2022-12-24T22:45:04.315Z,6.43
2022-12-24T22:47:08.398Z,5.80
2022-12-24T22:49:13.847Z,5.75
2022-12-24T22:51:18.299Z,5.40
2022-12-24T22:53:22.101Z,5.15
2022-12-24T22:55:26.475Z,6.18
2022-12-24T22:57:30.046Z,5.88
2022-12-24T22:59:33.705Z,5.82
2022-12-24T23:01:38.148Z,3.30
2022-12-24T23:03:43.217Z,4.25
2022-12-24T23:05:48.353Z,4.43
2022-12-24T23:07:52.053Z,4.90
2022-12-24T23:09:55.780Z,5.45
2022-12-24T23:11:59.385Z,5.65
2022-12-24T23:14:21.003Z,7.57
2022-12-24T23:16:24.825Z,6.32
2022-12-24T23:18:28.473Z,5.75
2022-12-24T23:20:32.067Z,6.63
2022-12-24T23:22:37.032Z,5.72
2022-12-24T23:24:41.355Z,3.15
2022-12-24T23:26:44.941Z,2.40
2022-12-24T23:28:48.843Z,2.40
2022-12-24T23:30:58.892Z,5.03
2022-12-24T23:33:02.728Z,4.22
2022-12-24T23:35:06.564Z,3.85
2022-12-24T23:37:10.298Z,3.90
2022-12-24T23:39:15.341Z,4.20
2022-12-24T23:41:19.943Z,3.83
2022-12-24T23:43:23.548Z,4.65
2022-12-24T23:45:27.251Z,3.60
2022-12-24T23:47:30.972Z,4.03
2022-12-24T23:49:35.984Z,3.83
2022-12-24T23:51:39.484Z,3.95
2022-12-24T23:53:43.413Z,2.83
2022-12-24T23:55:48.485Z,2.40
2022-12-24T23:57:52.561Z,3.00
2022-12-24T23:59:56.243Z,3.78
